sensor_id;sensor_type;location;lat;lon;timestamp;P1;durP1;ratioP1;P2;durP2;ratioP2
49824;SDS011;35714;55.708;37.478;2023-03-31T00:00:55;5.10;;;2.70;;
49824;SDS011;35714;55.708;37.478;2023-03-31T00:03:22;3.42;;;1.90;;
49824;SDS011;35714;55.708;37.478;2023-03-31T00:05:55;4.03;;;2.20;;
49824;SDS011;35714;55.708;37.478;2023-03-31T00:08:22;4.43;;;2.30;;
49824;SDS011;35714;55.708;37.478;2023-03-31T00:10:49;4.53;;;2.72;;
49824;SDS011;35714;55.708;37.478;2023-03-31T00:13:15;4.43;;;2.38;;
49824;SDS011;35714;55.708;37.478;2023-03-31T00:15:41;5.85;;;2.17;;
49824;SDS011;35714;55.708;37.478;2023-03-31T00:18:06;4.70;;;2.63;;
49824;SDS011;35714;55.708;37.478;2023-03-31T00:20:32;4.65;;;2.35;;
49824;SDS011;35714;55.708;37.478;2023-03-31T00:23:02;4.50;;;2.30;;
49824;SDS011;35714;55.708;37.478;2023-03-31T00:25:30;4.03;;;2.20;;
49824;SDS011;35714;55.708;37.478;2023-03-31T00:27:56;5.57;;;2.33;;
49824;SDS011;35714;55.708;37.478;2023-03-31T00:30:22;5.22;;;2.33;;
49824;SDS011;35714;55.708;37.478;2023-03-31T00:32:47;4.93;;;2.60;;
49824;SDS011;35714;55.708;37.478;2023-03-31T00:35:13;3.95;;;2.03;;
49824;SDS011;35714;55.708;37.478;2023-03-31T00:37:39;5.30;;;2.47;;
49824;SDS011;35714;55.708;37.478;2023-03-31T00:40:04;5.32;;;2.30;;
49824;SDS011;35714;55.708;37.478;2023-03-31T00:42:37;5.00;;;2.60;;
49824;SDS011;35714;55.708;37.478;2023-03-31T00:47:41;5.10;;;2.80;;
49824;SDS011;35714;55.708;37.478;2023-03-31T00:50:15;6.78;;;2.00;;
49824;SDS011;35714;55.708;37.478;2023-03-31T00:52:46;5.20;;;2.50;;
49824;SDS011;35714;55.708;37.478;2023-03-31T00:55:16;4.15;;;2.45;;
49824;SDS011;35714;55.708;37.478;2023-03-31T00:57:47;5.93;;;2.70;;
49824;SDS011;35714;55.708;37.478;2023-03-31T01:00:13;4.32;;;2.38;;
49824;SDS011;35714;55.708;37.478;2023-03-31T01:02:43;5.25;;;2.70;;
49824;SDS011;35714;55.708;37.478;2023-03-31T01:05:19;5.07;;;2.40;;
49824;SDS011;35714;55.708;37.478;2023-03-31T01:07:48;4.22;;;2.20;;
49824;SDS011;35714;55.708;37.478;2023-03-31T01:10:16;4.47;;;2.70;;
49824;SDS011;35714;55.708;37.478;2023-03-31T01:12:43;4.22;;;2.33;;
49824;SDS011;35714;55.708;37.478;2023-03-31T01:15:14;3.97;;;2.20;;
49824;SDS011;35714;55.708;37.478;2023-03-31T01:17:40;7.55;;;2.28;;
49824;SDS011;35714;55.708;37.478;2023-03-31T01:36:33;4.35;;;2.47;;
49824;SDS011;35714;55.708;37.478;2023-03-31T01:48:00;5.68;;;2.50;;
49824;SDS011;35714;55.708;37.478;2023-03-31T01:58:38;5.35;;;2.40;;
49824;SDS011;35714;55.708;37.478;2023-03-31T02:01:24;5.03;;;2.50;;
49824;SDS011;35714;55.708;37.478;2023-03-31T02:03:58;3.92;;;1.95;;
49824;SDS011;35714;55.708;37.478;2023-03-31T02:06:32;4.28;;;2.40;;
49824;SDS011;35714;55.708;37.478;2023-03-31T02:09:05;4.85;;;2.47;;
49824;SDS011;35714;55.708;37.478;2023-03-31T02:11:38;5.55;;;2.20;;
49824;SDS011;35714;55.708;37.478;2023-03-31T02:14:07;5.10;;;2.55;;
49824;SDS011;35714;55.708;37.478;2023-03-31T02:16:56;4.80;;;2.53;;
49824;SDS011;35714;55.708;37.478;2023-03-31T02:19:24;5.10;;;2.30;;
49824;SDS011;35714;55.708;37.478;2023-03-31T02:21:56;4.80;;;2.40;;
49824;SDS011;35714;55.708;37.478;2023-03-31T02:24:24;3.63;;;2.00;;
49824;SDS011;35714;55.708;37.478;2023-03-31T02:29:43;4.28;;;2.22;;
49824;SDS011;35714;55.708;37.478;2023-03-31T02:32:23;4.60;;;2.33;;
49824;SDS011;35714;55.708;37.478;2023-03-31T02:34:57;4.97;;;2.15;;
49824;SDS011;35714;55.708;37.478;2023-03-31T02:37:24;4.93;;;2.45;;
49824;SDS011;35714;55.708;37.478;2023-03-31T02:39:51;3.45;;;1.88;;
49824;SDS011;35714;55.708;37.478;2023-03-31T02:42:20;3.42;;;1.90;;
49824;SDS011;35714;55.708;37.478;2023-03-31T02:44:48;3.88;;;1.83;;
49824;SDS011;35714;55.708;37.478;2023-03-31T02:47:14;4.00;;;1.90;;
49824;SDS011;35714;55.708;37.478;2023-03-31T02:49:44;4.18;;;1.95;;
49824;SDS011;35714;55.708;37.478;2023-03-31T03:00:51;5.97;;;3.17;;
49824;SDS011;35714;55.708;37.478;2023-03-31T03:11:45;4.90;;;2.40;;
49824;SDS011;35714;55.708;37.478;2023-03-31T03:19:55;5.10;;;2.25;;
49824;SDS011;35714;55.708;37.478;2023-03-31T03:22:24;6.97;;;2.58;;
49824;SDS011;35714;55.708;37.478;2023-03-31T03:24:50;5.15;;;2.25;;
49824;SDS011;35714;55.708;37.478;2023-03-31T03:27:16;4.43;;;2.65;;
49824;SDS011;35714;55.708;37.478;2023-03-31T03:29:42;5.75;;;2.33;;
49824;SDS011;35714;55.708;37.478;2023-03-31T03:32:09;7.15;;;2.20;;
49824;SDS011;35714;55.708;37.478;2023-03-31T03:34:35;4.05;;;2.00;;
49824;SDS011;35714;55.708;37.478;2023-03-31T03:37:01;3.35;;;1.60;;
49824;SDS011;35714;55.708;37.478;2023-03-31T03:39:27;5.10;;;2.08;;
49824;SDS011;35714;55.708;37.478;2023-03-31T03:41:52;4.85;;;2.25;;
49824;SDS011;35714;55.708;37.478;2023-03-31T03:44:18;4.18;;;1.90;;
49824;SDS011;35714;55.708;37.478;2023-03-31T03:46:44;4.15;;;1.75;;
49824;SDS011;35714;55.708;37.478;2023-03-31T03:49:09;3.83;;;1.85;;
49824;SDS011;35714;55.708;37.478;2023-03-31T03:51:35;4.30;;;1.70;;
49824;SDS011;35714;55.708;37.478;2023-03-31T03:54:01;4.25;;;1.52;;
49824;SDS011;35714;55.708;37.478;2023-03-31T03:56:26;6.45;;;2.35;;
49824;SDS011;35714;55.708;37.478;2023-03-31T03:58:52;5.65;;;2.08;;
49824;SDS011;35714;55.708;37.478;2023-03-31T04:01:18;4.40;;;2.03;;
49824;SDS011;35714;55.708;37.478;2023-03-31T04:03:43;3.60;;;1.65;;
49824;SDS011;35714;55.708;37.478;2023-03-31T04:06:09;3.85;;;1.98;;
49824;SDS011;35714;55.708;37.478;2023-03-31T04:08:35;3.90;;;1.80;;
49824;SDS011;35714;55.708;37.478;2023-03-31T04:11:01;4.78;;;2.17;;
49824;SDS011;35714;55.708;37.478;2023-03-31T04:13:28;5.25;;;2.13;;
49824;SDS011;35714;55.708;37.478;2023-03-31T04:15:54;4.82;;;1.98;;
49824;SDS011;35714;55.708;37.478;2023-03-31T04:18:19;4.15;;;2.13;;
49824;SDS011;35714;55.708;37.478;2023-03-31T04:20:51;4.28;;;2.33;;
49824;SDS011;35714;55.708;37.478;2023-03-31T04:23:33;4.75;;;2.28;;
49824;SDS011;35714;55.708;37.478;2023-03-31T04:26:02;3.92;;;1.90;;
49824;SDS011;35714;55.708;37.478;2023-03-31T04:28:33;4.05;;;2.15;;
49824;SDS011;35714;55.708;37.478;2023-03-31T04:31:00;7.97;;;1.90;;
49824;SDS011;35714;55.708;37.478;2023-03-31T04:33:26;4.22;;;2.20;;
49824;SDS011;35714;55.708;37.478;2023-03-31T04:35:52;7.25;;;2.97;;
49824;SDS011;35714;55.708;37.478;2023-03-31T04:38:19;5.40;;;2.28;;
49824;SDS011;35714;55.708;37.478;2023-03-31T04:40:49;5.47;;;2.60;;
49824;SDS011;35714;55.708;37.478;2023-03-31T04:43:16;6.28;;;2.00;;
49824;SDS011;35714;55.708;37.478;2023-03-31T04:45:43;4.25;;;2.30;;
49824;SDS011;35714;55.708;37.478;2023-03-31T04:48:09;3.55;;;1.88;;
49824;SDS011;35714;55.708;37.478;2023-03-31T04:50:36;4.45;;;2.28;;
49824;SDS011;35714;55.708;37.478;2023-03-31T04:53:02;6.15;;;2.13;;
49824;SDS011;35714;55.708;37.478;2023-03-31T04:55:29;3.80;;;2.05;;
49824;SDS011;35714;55.708;37.478;2023-03-31T04:57:55;3.60;;;1.83;;
49824;SDS011;35714;55.708;37.478;2023-03-31T05:00:21;5.18;;;2.30;;
49824;SDS011;35714;55.708;37.478;2023-03-31T05:02:47;5.07;;;2.10;;
49824;SDS011;35714;55.708;37.478;2023-03-31T05:05:12;10.23;;;2.35;;
49824;SDS011;35714;55.708;37.478;2023-03-31T05:07:38;4.22;;;2.30;;
49824;SDS011;35714;55.708;37.478;2023-03-31T05:10:04;4.30;;;2.55;;
49824;SDS011;35714;55.708;37.478;2023-03-31T05:12:34;3.72;;;2.10;;
49824;SDS011;35714;55.708;37.478;2023-03-31T05:15:00;4.97;;;2.17;;
49824;SDS011;35714;55.708;37.478;2023-03-31T05:17:26;3.95;;;1.80;;
49824;SDS011;35714;55.708;37.478;2023-03-31T05:19:52;3.85;;;1.98;;
49824;SDS011;35714;55.708;37.478;2023-03-31T05:22:17;4.30;;;2.25;;
49824;SDS011;35714;55.708;37.478;2023-03-31T05:24:46;3.97;;;1.77;;
49824;SDS011;35714;55.708;37.478;2023-03-31T05:27:12;3.83;;;2.00;;
49824;SDS011;35714;55.708;37.478;2023-03-31T05:29:37;3.35;;;1.90;;
49824;SDS011;35714;55.708;37.478;2023-03-31T05:32:03;4.65;;;2.20;;
49824;SDS011;35714;55.708;37.478;2023-03-31T05:34:29;5.38;;;2.08;;
49824;SDS011;35714;55.708;37.478;2023-03-31T05:36:55;4.32;;;1.67;;
49824;SDS011;35714;55.708;37.478;2023-03-31T05:39:21;4.72;;;2.00;;
49824;SDS011;35714;55.708;37.478;2023-03-31T05:41:47;4.78;;;2.30;;
49824;SDS011;35714;55.708;37.478;2023-03-31T05:44:13;6.38;;;2.63;;
49824;SDS011;35714;55.708;37.478;2023-03-31T05:46:38;4.28;;;1.80;;
49824;SDS011;35714;55.708;37.478;2023-03-31T05:49:05;5.65;;;2.40;;
49824;SDS011;35714;55.708;37.478;2023-03-31T05:51:31;5.90;;;2.40;;
49824;SDS011;35714;55.708;37.478;2023-03-31T05:53:57;4.50;;;2.38;;
49824;SDS011;35714;55.708;37.478;2023-03-31T05:56:22;5.47;;;2.30;;
49824;SDS011;35714;55.708;37.478;2023-03-31T05:58:48;5.10;;;2.38;;
49824;SDS011;35714;55.708;37.478;2023-03-31T06:01:14;4.75;;;2.50;;
49824;SDS011;35714;55.708;37.478;2023-03-31T06:03:45;3.85;;;2.20;;
49824;SDS011;35714;55.708;37.478;2023-03-31T06:06:11;4.97;;;2.40;;
49824;SDS011;35714;55.708;37.478;2023-03-31T06:08:37;7.93;;;2.42;;
49824;SDS011;35714;55.708;37.478;2023-03-31T06:11:04;4.88;;;2.30;;
49824;SDS011;35714;55.708;37.478;2023-03-31T06:13:31;4.32;;;2.25;;
49824;SDS011;35714;55.708;37.478;2023-03-31T06:15:58;5.85;;;2.58;;
49824;SDS011;35714;55.708;37.478;2023-03-31T06:18:25;6.22;;;2.85;;
49824;SDS011;35714;55.708;37.478;2023-03-31T06:20:53;6.95;;;3.28;;
49824;SDS011;35714;55.708;37.478;2023-03-31T06:23:19;8.77;;;2.30;;
49824;SDS011;35714;55.708;37.478;2023-03-31T06:25:45;5.13;;;2.35;;
49824;SDS011;35714;55.708;37.478;2023-03-31T06:28:11;5.53;;;2.25;;
49824;SDS011;35714;55.708;37.478;2023-03-31T06:30:36;8.30;;;2.65;;
49824;SDS011;35714;55.708;37.478;2023-03-31T06:33:02;4.10;;;2.40;;
49824;SDS011;35714;55.708;37.478;2023-03-31T06:35:29;9.00;;;2.63;;
49824;SDS011;35714;55.708;37.478;2023-03-31T06:37:55;4.00;;;2.13;;
49824;SDS011;35714;55.708;37.478;2023-03-31T06:40:20;4.70;;;2.80;;
49824;SDS011;35714;55.708;37.478;2023-03-31T06:42:46;5.63;;;2.35;;
49824;SDS011;35714;55.708;37.478;2023-03-31T06:45:11;5.55;;;2.25;;
49824;SDS011;35714;55.708;37.478;2023-03-31T06:47:37;4.53;;;2.20;;
49824;SDS011;35714;55.708;37.478;2023-03-31T06:50:03;6.90;;;3.03;;
49824;SDS011;35714;55.708;37.478;2023-03-31T06:52:30;6.45;;;2.83;;
49824;SDS011;35714;55.708;37.478;2023-03-31T06:54:56;5.05;;;2.70;;
49824;SDS011;35714;55.708;37.478;2023-03-31T06:57:22;4.75;;;2.65;;
49824;SDS011;35714;55.708;37.478;2023-03-31T06:59:47;5.47;;;3.15;;
49824;SDS011;35714;55.708;37.478;2023-03-31T07:02:13;5.13;;;2.85;;
49824;SDS011;35714;55.708;37.478;2023-03-31T07:04:38;6.97;;;2.20;;
49824;SDS011;35714;55.708;37.478;2023-03-31T07:07:04;5.60;;;2.67;;
49824;SDS011;35714;55.708;37.478;2023-03-31T07:09:30;4.30;;;2.67;;
49824;SDS011;35714;55.708;37.478;2023-03-31T07:11:55;4.57;;;2.30;;
49824;SDS011;35714;55.708;37.478;2023-03-31T07:14:21;5.00;;;2.30;;
49824;SDS011;35714;55.708;37.478;2023-03-31T07:16:46;9.32;;;3.22;;
49824;SDS011;35714;55.708;37.478;2023-03-31T07:19:12;6.75;;;2.85;;
49824;SDS011;35714;55.708;37.478;2023-03-31T07:21:39;4.43;;;2.47;;
49824;SDS011;35714;55.708;37.478;2023-03-31T07:24:05;5.22;;;2.45;;
49824;SDS011;35714;55.708;37.478;2023-03-31T07:26:31;5.32;;;3.10;;
49824;SDS011;35714;55.708;37.478;2023-03-31T07:28:56;9.77;;;3.20;;
49824;SDS011;35714;55.708;37.478;2023-03-31T07:31:23;6.65;;;2.92;;
49824;SDS011;35714;55.708;37.478;2023-03-31T07:33:49;4.75;;;2.60;;
49824;SDS011;35714;55.708;37.478;2023-03-31T07:36:15;9.45;;;3.25;;
49824;SDS011;35714;55.708;37.478;2023-03-31T07:38:41;6.60;;;2.85;;
49824;SDS011;35714;55.708;37.478;2023-03-31T07:41:10;5.00;;;2.60;;
49824;SDS011;35714;55.708;37.478;2023-03-31T07:43:38;7.60;;;2.50;;
49824;SDS011;35714;55.708;37.478;2023-03-31T07:46:04;4.50;;;2.53;;
49824;SDS011;35714;55.708;37.478;2023-03-31T07:48:32;5.55;;;2.53;;
49824;SDS011;35714;55.708;37.478;2023-03-31T07:50:58;5.60;;;2.65;;
49824;SDS011;35714;55.708;37.478;2023-03-31T07:53:30;6.80;;;2.42;;
49824;SDS011;35714;55.708;37.478;2023-03-31T07:55:55;5.35;;;2.50;;
49824;SDS011;35714;55.708;37.478;2023-03-31T07:58:21;4.90;;;2.83;;
49824;SDS011;35714;55.708;37.478;2023-03-31T08:00:47;4.97;;;2.85;;
49824;SDS011;35714;55.708;37.478;2023-03-31T08:03:12;5.70;;;2.42;;
49824;SDS011;35714;55.708;37.478;2023-03-31T08:05:38;6.68;;;2.67;;
49824;SDS011;35714;55.708;37.478;2023-03-31T08:08:04;6.93;;;3.05;;
49824;SDS011;35714;55.708;37.478;2023-03-31T08:10:29;9.50;;;3.65;;
49824;SDS011;35714;55.708;37.478;2023-03-31T08:12:55;5.65;;;2.90;;
49824;SDS011;35714;55.708;37.478;2023-03-31T08:15:21;8.52;;;3.17;;
49824;SDS011;35714;55.708;37.478;2023-03-31T08:17:47;7.70;;;2.63;;
49824;SDS011;35714;55.708;37.478;2023-03-31T08:20:12;6.00;;;2.78;;
49824;SDS011;35714;55.708;37.478;2023-03-31T08:22:38;4.45;;;2.42;;
49824;SDS011;35714;55.708;37.478;2023-03-31T08:25:05;6.22;;;2.70;;
49824;SDS011;35714;55.708;37.478;2023-03-31T08:27:33;6.18;;;2.83;;
49824;SDS011;35714;55.708;37.478;2023-03-31T08:30:00;5.15;;;2.80;;
49824;SDS011;35714;55.708;37.478;2023-03-31T08:32:30;4.65;;;2.40;;
49824;SDS011;35714;55.708;37.478;2023-03-31T08:34:59;6.75;;;2.67;;
49824;SDS011;35714;55.708;37.478;2023-03-31T08:37:25;6.03;;;3.03;;
49824;SDS011;35714;55.708;37.478;2023-03-31T08:39:53;5.60;;;2.72;;
49824;SDS011;35714;55.708;37.478;2023-03-31T08:45:45;7.93;;;2.80;;
49824;SDS011;35714;55.708;37.478;2023-03-31T08:50:42;6.90;;;2.90;;
49824;SDS011;35714;55.708;37.478;2023-03-31T08:53:16;6.03;;;2.80;;
49824;SDS011;35714;55.708;37.478;2023-03-31T08:55:54;5.90;;;2.88;;
49824;SDS011;35714;55.708;37.478;2023-03-31T08:58:27;6.45;;;2.38;;
49824;SDS011;35714;55.708;37.478;2023-03-31T09:01:32;5.45;;;2.90;;
49824;SDS011;35714;55.708;37.478;2023-03-31T09:14:59;5.47;;;2.63;;
49824;SDS011;35714;55.708;37.478;2023-03-31T09:17:30;6.75;;;2.55;;
49824;SDS011;35714;55.708;37.478;2023-03-31T09:22:34;6.20;;;2.58;;
49824;SDS011;35714;55.708;37.478;2023-03-31T09:27:51;5.82;;;2.83;;
49824;SDS011;35714;55.708;37.478;2023-03-31T09:33:12;8.77;;;2.80;;
49824;SDS011;35714;55.708;37.478;2023-03-31T09:35:41;5.30;;;2.63;;
49824;SDS011;35714;55.708;37.478;2023-03-31T09:38:09;5.80;;;3.60;;
49824;SDS011;35714;55.708;37.478;2023-03-31T09:40:36;8.35;;;3.85;;
49824;SDS011;35714;55.708;37.478;2023-03-31T09:43:04;7.13;;;3.15;;
49824;SDS011;35714;55.708;37.478;2023-03-31T09:45:32;6.43;;;2.75;;
49824;SDS011;35714;55.708;37.478;2023-03-31T09:48:02;11.98;;;4.45;;
49824;SDS011;35714;55.708;37.478;2023-03-31T09:50:32;5.85;;;3.25;;
49824;SDS011;35714;55.708;37.478;2023-03-31T09:53:06;12.10;;;2.40;;
49824;SDS011;35714;55.708;37.478;2023-03-31T09:55:43;5.47;;;3.17;;
49824;SDS011;35714;55.708;37.478;2023-03-31T09:58:14;7.30;;;3.17;;
49824;SDS011;35714;55.708;37.478;2023-03-31T10:00:41;8.35;;;3.47;;
49824;SDS011;35714;55.708;37.478;2023-03-31T10:03:20;11.77;;;3.45;;
49824;SDS011;35714;55.708;37.478;2023-03-31T10:05:48;6.30;;;2.72;;
49824;SDS011;35714;55.708;37.478;2023-03-31T10:13:26;10.25;;;2.72;;
49824;SDS011;35714;55.708;37.478;2023-03-31T10:16:03;6.85;;;3.38;;
49824;SDS011;35714;55.708;37.478;2023-03-31T10:18:35;6.53;;;2.80;;
49824;SDS011;35714;55.708;37.478;2023-03-31T10:21:03;7.95;;;2.80;;
49824;SDS011;35714;55.708;37.478;2023-03-31T10:23:32;5.38;;;2.55;;
49824;SDS011;35714;55.708;37.478;2023-03-31T10:25:59;9.95;;;2.83;;
49824;SDS011;35714;55.708;37.478;2023-03-31T10:28:29;14.85;;;3.05;;
49824;SDS011;35714;55.708;37.478;2023-03-31T10:30:57;6.55;;;2.33;;
49824;SDS011;35714;55.708;37.478;2023-03-31T10:33:29;6.22;;;2.47;;
49824;SDS011;35714;55.708;37.478;2023-03-31T10:36:00;4.90;;;2.20;;
49824;SDS011;35714;55.708;37.478;2023-03-31T10:38:42;4.35;;;2.10;;
49824;SDS011;35714;55.708;37.478;2023-03-31T10:41:09;9.63;;;2.58;;
49824;SDS011;35714;55.708;37.478;2023-03-31T10:43:40;5.40;;;2.53;;
49824;SDS011;35714;55.708;37.478;2023-03-31T10:46:08;5.55;;;2.10;;
49824;SDS011;35714;55.708;37.478;2023-03-31T10:48:35;4.70;;;2.33;;
49824;SDS011;35714;55.708;37.478;2023-03-31T10:53:30;5.03;;;2.55;;
49824;SDS011;35714;55.708;37.478;2023-03-31T11:15:27;5.93;;;2.10;;
49824;SDS011;35714;55.708;37.478;2023-03-31T11:26:17;6.03;;;1.98;;
49824;SDS011;35714;55.708;37.478;2023-03-31T11:42:21;7.28;;;2.30;;
49824;SDS011;35714;55.708;37.478;2023-03-31T11:45:00;5.35;;;2.10;;
49824;SDS011;35714;55.708;37.478;2023-03-31T11:47:36;5.05;;;2.28;;
49824;SDS011;35714;55.708;37.478;2023-03-31T11:50:10;8.57;;;2.33;;
49824;SDS011;35714;55.708;37.478;2023-03-31T11:52:39;6.13;;;2.40;;
49824;SDS011;35714;55.708;37.478;2023-03-31T12:00:31;4.93;;;2.38;;
49824;SDS011;35714;55.708;37.478;2023-03-31T12:05:27;6.97;;;2.30;;
49824;SDS011;35714;55.708;37.478;2023-03-31T12:08:04;6.18;;;3.08;;
49824;SDS011;35714;55.708;37.478;2023-03-31T12:10:36;6.07;;;1.88;;
49824;SDS011;35714;55.708;37.478;2023-03-31T12:21:49;4.85;;;2.25;;
49824;SDS011;35714;55.708;37.478;2023-03-31T12:24:19;4.35;;;2.05;;
49824;SDS011;35714;55.708;37.478;2023-03-31T12:26:49;5.07;;;2.33;;
49824;SDS011;35714;55.708;37.478;2023-03-31T12:29:33;7.43;;;2.38;;
49824;SDS011;35714;55.708;37.478;2023-03-31T12:32:04;8.27;;;2.75;;
49824;SDS011;35714;55.708;37.478;2023-03-31T12:34:37;9.80;;;5.53;;
49824;SDS011;35714;55.708;37.478;2023-03-31T12:40:40;7.60;;;2.78;;
49824;SDS011;35714;55.708;37.478;2023-03-31T12:46:02;7.55;;;2.30;;
49824;SDS011;35714;55.708;37.478;2023-03-31T12:56:11;5.82;;;2.75;;
49824;SDS011;35714;55.708;37.478;2023-03-31T12:58:41;7.32;;;3.22;;
49824;SDS011;35714;55.708;37.478;2023-03-31T13:09:05;6.18;;;2.65;;
49824;SDS011;35714;55.708;37.478;2023-03-31T13:11:51;5.38;;;2.75;;
49824;SDS011;35714;55.708;37.478;2023-03-31T13:14:24;5.97;;;3.03;;
49824;SDS011;35714;55.708;37.478;2023-03-31T13:19:46;7.85;;;3.17;;
49824;SDS011;35714;55.708;37.478;2023-03-31T13:22:28;7.38;;;2.85;;
49824;SDS011;35714;55.708;37.478;2023-03-31T13:33:13;7.20;;;3.45;;
49824;SDS011;35714;55.708;37.478;2023-03-31T13:35:40;9.18;;;3.05;;
49824;SDS011;35714;55.708;37.478;2023-03-31T13:53:32;6.35;;;3.08;;
49824;SDS011;35714;55.708;37.478;2023-03-31T14:07:31;8.18;;;3.70;;
49824;SDS011;35714;55.708;37.478;2023-03-31T14:10:01;8.10;;;3.90;;
49824;SDS011;35714;55.708;37.478;2023-03-31T14:12:35;8.32;;;3.63;;
49824;SDS011;35714;55.708;37.478;2023-03-31T14:15:02;7.05;;;3.17;;
49824;SDS011;35714;55.708;37.478;2023-03-31T14:17:34;9.60;;;4.20;;
49824;SDS011;35714;55.708;37.478;2023-03-31T14:20:14;6.28;;;3.35;;
49824;SDS011;35714;55.708;37.478;2023-03-31T14:28:52;9.10;;;3.95;;
49824;SDS011;35714;55.708;37.478;2023-03-31T14:34:43;9.60;;;4.70;;
49824;SDS011;35714;55.708;37.478;2023-03-31T14:37:19;9.15;;;4.68;;
49824;SDS011;35714;55.708;37.478;2023-03-31T14:39:47;7.13;;;3.50;;
49824;SDS011;35714;55.708;37.478;2023-03-31T14:42:17;7.72;;;3.85;;
49824;SDS011;35714;55.708;37.478;2023-03-31T14:44:46;8.68;;;4.20;;
49824;SDS011;35714;55.708;37.478;2023-03-31T14:47:13;6.80;;;3.80;;
49824;SDS011;35714;55.708;37.478;2023-03-31T14:49:45;8.18;;;4.28;;
49824;SDS011;35714;55.708;37.478;2023-03-31T14:52:15;9.45;;;4.72;;
49824;SDS011;35714;55.708;37.478;2023-03-31T14:54:43;7.03;;;3.92;;
49824;SDS011;35714;55.708;37.478;2023-03-31T14:57:15;6.40;;;4.07;;
49824;SDS011;35714;55.708;37.478;2023-03-31T14:59:45;7.45;;;4.30;;
49824;SDS011;35714;55.708;37.478;2023-03-31T15:02:19;5.57;;;3.45;;
49824;SDS011;35714;55.708;37.478;2023-03-31T15:04:55;8.65;;;4.78;;
49824;SDS011;35714;55.708;37.478;2023-03-31T15:07:22;8.20;;;4.45;;
49824;SDS011;35714;55.708;37.478;2023-03-31T15:09:48;7.97;;;4.15;;
49824;SDS011;35714;55.708;37.478;2023-03-31T15:12:16;7.38;;;4.25;;
49824;SDS011;35714;55.708;37.478;2023-03-31T15:14:44;8.50;;;4.47;;
49824;SDS011;35714;55.708;37.478;2023-03-31T15:17:16;7.35;;;3.92;;
49824;SDS011;35714;55.708;37.478;2023-03-31T15:19:44;9.18;;;3.90;;
49824;SDS011;35714;55.708;37.478;2023-03-31T15:22:11;8.35;;;4.22;;
49824;SDS011;35714;55.708;37.478;2023-03-31T15:24:40;8.63;;;4.60;;
49824;SDS011;35714;55.708;37.478;2023-03-31T15:27:12;9.93;;;4.72;;
49824;SDS011;35714;55.708;37.478;2023-03-31T15:29:45;10.32;;;4.13;;
49824;SDS011;35714;55.708;37.478;2023-03-31T15:32:14;8.07;;;4.13;;
49824;SDS011;35714;55.708;37.478;2023-03-31T15:34:46;8.13;;;4.45;;
49824;SDS011;35714;55.708;37.478;2023-03-31T15:37:14;8.40;;;4.10;;
49824;SDS011;35714;55.708;37.478;2023-03-31T15:39:43;8.98;;;4.60;;
49824;SDS011;35714;55.708;37.478;2023-03-31T15:42:11;8.98;;;4.65;;
49824;SDS011;35714;55.708;37.478;2023-03-31T15:44:38;9.05;;;4.45;;
49824;SDS011;35714;55.708;37.478;2023-03-31T15:47:11;10.50;;;4.30;;
49824;SDS011;35714;55.708;37.478;2023-03-31T15:49:46;8.15;;;4.35;;
49824;SDS011;35714;55.708;37.478;2023-03-31T15:54:55;8.18;;;4.15;;
49824;SDS011;35714;55.708;37.478;2023-03-31T15:57:22;7.40;;;4.50;;
49824;SDS011;35714;55.708;37.478;2023-03-31T15:59:56;8.15;;;4.32;;
49824;SDS011;35714;55.708;37.478;2023-03-31T16:02:23;7.95;;;4.38;;
49824;SDS011;35714;55.708;37.478;2023-03-31T16:04:53;11.10;;;4.40;;
49824;SDS011;35714;55.708;37.478;2023-03-31T16:07:23;9.90;;;4.82;;
49824;SDS011;35714;55.708;37.478;2023-03-31T16:09:54;8.65;;;4.47;;
49824;SDS011;35714;55.708;37.478;2023-03-31T16:12:56;9.40;;;4.45;;
49824;SDS011;35714;55.708;37.478;2023-03-31T16:15:33;9.65;;;4.65;;
49824;SDS011;35714;55.708;37.478;2023-03-31T16:18:04;8.02;;;4.57;;
49824;SDS011;35714;55.708;37.478;2023-03-31T16:20:35;9.10;;;4.38;;
49824;SDS011;35714;55.708;37.478;2023-03-31T16:23:14;9.10;;;4.82;;
49824;SDS011;35714;55.708;37.478;2023-03-31T16:25:43;8.50;;;4.45;;
49824;SDS011;35714;55.708;37.478;2023-03-31T16:28:14;8.15;;;4.75;;
49824;SDS011;35714;55.708;37.478;2023-03-31T16:30:43;7.88;;;4.30;;
49824;SDS011;35714;55.708;37.478;2023-03-31T16:33:13;6.82;;;4.20;;
49824;SDS011;35714;55.708;37.478;2023-03-31T16:35:43;8.13;;;4.53;;
49824;SDS011;35714;55.708;37.478;2023-03-31T16:38:13;9.65;;;5.95;;
49824;SDS011;35714;55.708;37.478;2023-03-31T16:40:41;7.72;;;4.75;;
49824;SDS011;35714;55.708;37.478;2023-03-31T16:45:34;6.40;;;4.05;;
49824;SDS011;35714;55.708;37.478;2023-03-31T16:48:01;7.57;;;4.28;;
49824;SDS011;35714;55.708;37.478;2023-03-31T16:50:27;7.80;;;4.20;;
49824;SDS011;35714;55.708;37.478;2023-03-31T16:52:53;8.25;;;4.22;;
49824;SDS011;35714;55.708;37.478;2023-03-31T16:55:18;7.25;;;4.07;;
49824;SDS011;35714;55.708;37.478;2023-03-31T16:57:44;8.18;;;4.80;;
49824;SDS011;35714;55.708;37.478;2023-03-31T17:00:10;7.50;;;4.05;;
49824;SDS011;35714;55.708;37.478;2023-03-31T17:02:37;8.63;;;5.05;;
49824;SDS011;35714;55.708;37.478;2023-03-31T17:05:02;9.80;;;4.95;;
49824;SDS011;35714;55.708;37.478;2023-03-31T17:07:28;7.97;;;4.43;;
49824;SDS011;35714;55.708;37.478;2023-03-31T17:09:54;8.50;;;4.60;;
49824;SDS011;35714;55.708;37.478;2023-03-31T17:12:20;7.40;;;4.13;;
49824;SDS011;35714;55.708;37.478;2023-03-31T17:14:46;8.85;;;5.05;;
49824;SDS011;35714;55.708;37.478;2023-03-31T17:17:11;7.65;;;4.47;;
49824;SDS011;35714;55.708;37.478;2023-03-31T17:19:37;9.20;;;4.25;;
49824;SDS011;35714;55.708;37.478;2023-03-31T17:22:02;8.75;;;4.40;;
49824;SDS011;35714;55.708;37.478;2023-03-31T17:24:28;7.90;;;4.55;;
49824;SDS011;35714;55.708;37.478;2023-03-31T17:26:54;6.82;;;4.22;;
49824;SDS011;35714;55.708;37.478;2023-03-31T17:29:19;9.32;;;4.97;;
49824;SDS011;35714;55.708;37.478;2023-03-31T17:31:45;9.80;;;5.13;;
49824;SDS011;35714;55.708;37.478;2023-03-31T17:34:11;10.48;;;6.10;;
49824;SDS011;35714;55.708;37.478;2023-03-31T17:36:36;7.85;;;5.47;;
49824;SDS011;35714;55.708;37.478;2023-03-31T17:39:03;8.35;;;5.03;;
49824;SDS011;35714;55.708;37.478;2023-03-31T17:41:29;11.23;;;5.35;;
49824;SDS011;35714;55.708;37.478;2023-03-31T17:43:56;9.73;;;5.57;;
49824;SDS011;35714;55.708;37.478;2023-03-31T17:46:22;9.18;;;5.25;;
49824;SDS011;35714;55.708;37.478;2023-03-31T17:48:48;12.07;;;8.10;;
49824;SDS011;35714;55.708;37.478;2023-03-31T17:51:16;10.00;;;5.88;;
49824;SDS011;35714;55.708;37.478;2023-03-31T17:53:43;10.40;;;6.05;;
49824;SDS011;35714;55.708;37.478;2023-03-31T17:56:10;8.77;;;5.35;;
49824;SDS011;35714;55.708;37.478;2023-03-31T17:58:37;8.20;;;4.70;;
49824;SDS011;35714;55.708;37.478;2023-03-31T18:01:03;9.05;;;5.10;;
49824;SDS011;35714;55.708;37.478;2023-03-31T18:03:31;11.75;;;6.03;;
49824;SDS011;35714;55.708;37.478;2023-03-31T18:06:01;11.65;;;5.35;;
49824;SDS011;35714;55.708;37.478;2023-03-31T18:08:31;7.30;;;4.35;;
49824;SDS011;35714;55.708;37.478;2023-03-31T18:10:57;9.02;;;5.15;;
49824;SDS011;35714;55.708;37.478;2023-03-31T18:13:23;9.43;;;5.03;;
49824;SDS011;35714;55.708;37.478;2023-03-31T18:15:49;8.32;;;5.07;;
49824;SDS011;35714;55.708;37.478;2023-03-31T18:18:17;8.82;;;4.75;;
49824;SDS011;35714;55.708;37.478;2023-03-31T18:20:44;9.20;;;4.30;;
49824;SDS011;35714;55.708;37.478;2023-03-31T18:23:10;9.73;;;5.72;;
49824;SDS011;35714;55.708;37.478;2023-03-31T18:25:36;7.85;;;4.70;;
49824;SDS011;35714;55.708;37.478;2023-03-31T18:28:02;8.65;;;5.13;;